createdAt,value
2018-06-21T08:18:53.982Z,24.40
2018-06-21T08:21:22.070Z,24.40
2018-06-21T08:23:50.177Z,24.40
2018-06-21T08:26:18.291Z,24.50
2018-06-21T08:28:46.398Z,24.60
2018-06-21T08:31:14.496Z,24.60
2018-06-21T08:33:42.587Z,24.70
2018-06-21T08:36:10.697Z,24.70
2018-06-21T08:38:38.797Z,24.80
2018-06-21T08:41:07.134Z,24.90
2018-06-21T08:43:35.566Z,25.00
2018-06-21T08:46:03.735Z,25.10
2018-06-21T08:48:31.818Z,25.10
2018-06-21T08:50:59.943Z,25.00
2018-06-21T08:53:28.052Z,25.10
2018-06-21T08:55:56.126Z,25.10
2018-06-21T08:58:24.265Z,25.10
2018-06-21T09:00:52.311Z,25.20
2018-06-21T09:03:20.421Z,25.20
2018-06-21T09:05:48.524Z,25.30
2018-06-21T09:08:16.627Z,25.40
2018-06-21T09:10:44.731Z,25.60
2018-06-21T09:13:12.818Z,25.70
2018-06-21T09:15:40.971Z,25.70
2018-06-21T09:18:09.054Z,25.80
2018-06-21T09:20:37.133Z,25.90
2018-06-21T09:23:05.219Z,26.00
2018-06-21T09:25:33.317Z,26.10
2018-06-21T09:28:01.407Z,26.10
2018-06-21T09:30:29.545Z,26.10
2018-06-21T09:32:57.586Z,26.10
2018-06-21T09:35:25.676Z,26.20
2018-06-21T09:37:59.183Z,26.30
2018-06-21T09:40:32.573Z,26.30
2018-06-21T09:43:06.138Z,26.30
2018-06-21T09:45:39.713Z,26.30
2018-06-21T09:48:13.122Z,26.30
2018-06-21T09:50:41.223Z,26.30
2018-06-21T09:53:09.303Z,26.40
2018-06-21T09:55:37.398Z,26.50
2018-06-21T10:00:38.671Z,26.50
2018-06-21T10:03:06.756Z,26.50
2018-06-21T10:05:34.856Z,26.50
2018-06-21T10:08:02.937Z,26.60
2018-06-21T10:10:31.029Z,26.70
2018-06-21T10:12:59.114Z,26.90
2018-06-21T10:15:27.207Z,27.00
2018-06-21T10:17:58.313Z,27.10
2018-06-21T10:20:26.456Z,27.30
2018-06-21T10:22:54.629Z,27.30
2018-06-21T10:25:22.765Z,27.40
2018-06-21T10:27:50.873Z,27.50
2018-06-21T10:30:19.249Z,27.50
2018-06-21T10:32:47.351Z,27.40
2018-06-21T10:35:15.434Z,27.30
2018-06-21T10:40:11.606Z,27.20
2018-06-21T10:42:39.713Z,27.30
2018-06-21T10:45:07.981Z,27.30
2018-06-21T10:47:36.169Z,27.40
2018-06-21T10:50:04.241Z,27.40
2018-06-21T10:52:32.334Z,27.40
2018-06-21T10:55:00.419Z,27.50
2018-06-21T10:57:28.507Z,27.50
2018-06-21T10:59:56.577Z,27.50
2018-06-21T11:02:24.666Z,27.60
2018-06-21T11:04:52.741Z,27.50
2018-06-21T11:07:20.821Z,27.50
2018-06-21T11:09:48.905Z,27.30
2018-06-21T11:12:16.977Z,27.20
2018-06-21T11:14:45.090Z,27.20
2018-06-21T11:17:13.130Z,27.00
2018-06-21T11:19:41.202Z,26.80
2018-06-21T11:22:09.313Z,26.60
2018-06-21T11:24:37.376Z,26.60
2018-06-21T11:27:05.474Z,26.70
2018-06-21T11:29:33.552Z,26.60
2018-06-21T11:32:01.645Z,26.50
2018-06-21T11:34:29.734Z,26.30
2018-06-21T11:36:57.827Z,26.20
2018-06-21T11:39:25.911Z,26.10
2018-06-21T11:41:54.007Z,26.00
2018-06-21T11:44:22.079Z,25.90
2018-06-21T11:46:50.228Z,25.90
2018-06-21T11:49:18.234Z,25.90
2018-06-21T11:51:46.317Z,25.80
2018-06-21T11:54:14.397Z,25.80
2018-06-21T11:56:42.494Z,25.70
2018-06-21T11:59:10.572Z,25.60
2018-06-21T12:01:38.652Z,25.60
2018-06-21T12:04:06.737Z,25.60
2018-06-21T12:06:34.830Z,25.50
2018-06-21T12:09:03.132Z,25.50
2018-06-21T12:11:31.217Z,25.40
2018-06-21T12:13:59.368Z,25.40
2018-06-21T12:16:27.401Z,25.40
2018-06-21T12:18:55.621Z,25.40
2018-06-21T12:21:23.697Z,25.40
2018-06-21T12:26:20.685Z,25.40
2018-06-21T12:28:48.785Z,25.60
2018-06-21T12:31:16.861Z,25.70
2018-06-21T12:33:44.953Z,25.90
2018-06-21T12:36:13.037Z,26.00
2018-06-21T12:38:41.282Z,26.20
2018-06-21T12:41:09.361Z,26.40
2018-06-21T12:43:37.457Z,26.50
2018-06-21T12:46:05.515Z,26.70
2018-06-21T12:48:33.609Z,26.70
2018-06-21T12:51:01.682Z,26.80
2018-06-21T12:53:29.762Z,26.60
2018-06-21T12:55:57.838Z,26.80
2018-06-21T12:58:25.923Z,27.10
2018-06-21T13:00:54.000Z,27.30
2018-06-21T13:03:22.089Z,27.80
2018-06-21T13:05:50.161Z,28.80
2018-06-21T13:08:29.563Z,30.00
2018-06-21T13:11:09.129Z,30.50
2018-06-21T13:13:37.314Z,30.80
2018-06-21T13:16:05.395Z,31.40
2018-06-21T13:18:33.478Z,31.50
2018-06-21T13:21:01.567Z,31.40
2018-06-21T13:23:29.640Z,31.80
2018-06-21T13:25:57.723Z,32.40
2018-06-21T13:28:25.832Z,32.80
2018-06-21T13:30:53.905Z,33.30
2018-06-21T13:33:21.991Z,34.00
2018-06-21T13:35:50.058Z,34.10
2018-06-21T13:38:18.133Z,34.20
2018-06-21T13:40:46.209Z,33.70
2018-06-21T13:43:14.301Z,32.70
2018-06-21T13:45:42.383Z,32.40
2018-06-21T13:48:10.458Z,32.30
2018-06-21T13:50:38.545Z,32.40
2018-06-21T13:53:06.633Z,32.30
2018-06-21T13:55:34.698Z,32.50
2018-06-21T13:58:02.785Z,33.00
2018-06-21T14:00:30.857Z,33.50
2018-06-21T14:02:58.937Z,32.80
2018-06-21T14:05:27.009Z,32.60
2018-06-21T14:07:55.275Z,32.30
2018-06-21T14:10:23.175Z,31.60
2018-06-21T14:12:51.439Z,31.20
2018-06-21T14:15:19.487Z,31.10
2018-06-21T14:17:47.562Z,30.60
2018-06-21T14:20:15.659Z,30.20
2018-06-21T14:25:11.631Z,30.00
2018-06-21T14:27:39.702Z,30.40
2018-06-21T14:30:07.811Z,30.60
2018-06-21T14:32:35.865Z,30.60
2018-06-21T14:35:03.957Z,30.40
2018-06-21T14:37:32.041Z,30.70
2018-06-21T14:40:00.122Z,30.90
2018-06-21T14:42:28.228Z,31.00
2018-06-21T14:44:56.291Z,31.40
2018-06-21T14:47:24.366Z,31.30
2018-06-21T14:49:52.455Z,31.30
2018-06-21T14:52:20.526Z,31.00
2018-06-21T14:54:48.619Z,30.70
2018-06-21T14:57:16.689Z,31.00
2018-06-21T14:59:44.782Z,31.40
2018-06-21T15:02:12.979Z,31.70
2018-06-21T15:04:41.053Z,31.90
2018-06-21T15:07:09.132Z,32.10
2018-06-21T15:09:37.480Z,32.10
2018-06-21T15:12:05.679Z,32.10
2018-06-21T15:14:33.761Z,32.30
2018-06-21T15:17:01.838Z,32.20
2018-06-21T15:19:29.914Z,32.10
2018-06-21T15:21:57.995Z,32.20
2018-06-21T15:24:26.082Z,32.20
2018-06-21T15:26:54.183Z,32.00
2018-06-21T15:29:22.271Z,32.00
2018-06-21T15:31:50.368Z,32.00
2018-06-21T15:34:18.449Z,31.70
2018-06-21T15:36:46.527Z,31.70
2018-06-21T15:39:20.413Z,31.60
2018-06-21T15:41:48.497Z,31.50
2018-06-21T15:44:16.874Z,31.00
2018-06-21T15:46:45.150Z,30.60
2018-06-21T15:49:13.907Z,30.40
2018-06-21T15:51:42.311Z,30.10
2018-06-21T15:54:10.394Z,29.90
2018-06-21T15:56:38.466Z,29.70
2018-06-21T15:59:06.561Z,29.80
2018-06-21T16:01:34.650Z,29.80
2018-06-21T16:04:02.727Z,29.60
2018-06-21T16:06:30.951Z,29.40
2018-06-21T16:08:59.026Z,29.50
2018-06-21T16:11:27.102Z,29.60
2018-06-21T16:13:55.181Z,29.60
2018-06-21T16:16:23.252Z,29.50
2018-06-21T16:18:51.317Z,29.70
2018-06-21T16:21:19.406Z,29.60
2018-06-21T16:26:15.354Z,29.40
2018-06-21T16:28:43.421Z,29.20
2018-06-21T16:31:11.515Z,29.20
2018-06-21T16:33:39.607Z,29.10
2018-06-21T16:36:08.103Z,29.00
2018-06-21T16:38:36.199Z,28.70
2018-06-21T16:41:04.272Z,28.70
2018-06-21T16:46:00.223Z,28.50
2018-06-21T16:48:28.342Z,28.50
2018-06-21T16:50:56.447Z,28.40
2018-06-21T16:53:24.513Z,28.20
2018-06-21T16:55:52.609Z,28.10
2018-06-21T16:58:20.685Z,27.90
2018-06-21T17:00:48.770Z,27.70
2018-06-21T17:03:16.861Z,27.40
2018-06-21T17:05:44.937Z,27.40
2018-06-21T17:08:13.046Z,27.20
2018-06-21T17:13:08.985Z,27.10
2018-06-21T17:15:37.091Z,27.00
2018-06-21T17:18:05.186Z,26.80
2018-06-21T17:20:33.277Z,26.60
2018-06-21T17:23:01.345Z,26.60
2018-06-21T17:25:29.443Z,26.60
2018-06-21T17:27:57.515Z,26.40
2018-06-21T17:30:25.617Z,26.10
2018-06-21T17:32:53.682Z,26.10
2018-06-21T17:35:21.762Z,26.20
2018-06-21T17:37:49.855Z,26.10
2018-06-21T17:40:17.937Z,26.10
2018-06-21T17:42:46.011Z,26.00
2018-06-21T17:45:14.165Z,25.90
2018-06-21T17:47:42.231Z,25.70
2018-06-21T17:50:10.298Z,25.50
2018-06-21T17:52:38.378Z,25.60
2018-06-21T17:55:06.458Z,25.50
2018-06-21T17:57:34.537Z,25.40
2018-06-21T18:00:02.635Z,25.20
2018-06-21T18:02:30.725Z,25.10
2018-06-21T18:04:58.801Z,24.90
2018-06-21T18:07:26.879Z,24.70
2018-06-21T18:09:54.952Z,24.60
2018-06-21T18:12:23.039Z,24.60
2018-06-21T18:14:51.106Z,24.30
2018-06-21T18:17:19.209Z,24.20
2018-06-21T18:19:47.291Z,24.20
2018-06-21T18:22:15.370Z,24.10
2018-06-21T18:24:43.442Z,24.00
2018-06-21T18:27:11.543Z,23.90
2018-06-21T18:29:39.623Z,23.80
2018-06-21T18:32:07.782Z,23.80
2018-06-21T18:34:35.863Z,23.60
2018-06-21T18:37:03.937Z,23.40
2018-06-21T18:39:32.018Z,23.30
2018-06-21T18:42:00.135Z,23.10
2018-06-21T18:44:28.171Z,22.90
2018-06-21T18:46:56.255Z,22.80
2018-06-21T18:49:24.336Z,22.70
2018-06-21T18:51:52.443Z,22.70
2018-06-21T18:54:20.535Z,22.70
2018-06-21T18:56:48.613Z,22.60
2018-06-21T18:59:16.755Z,22.60
2018-06-21T19:01:44.817Z,22.50
2018-06-21T19:04:12.921Z,22.50
2018-06-21T19:06:46.229Z,22.40
2018-06-21T19:09:19.805Z,22.30
2018-06-21T19:11:53.226Z,22.10
2018-06-21T19:14:21.309Z,22.00
2018-06-21T19:16:49.391Z,21.90
2018-06-21T19:19:17.482Z,21.80
2018-06-21T19:21:45.559Z,21.70
2018-06-21T19:24:13.655Z,21.70
2018-06-21T19:26:41.745Z,21.60
2018-06-21T19:29:09.861Z,21.50
2018-06-21T19:31:37.929Z,21.40
2018-06-21T19:34:06.009Z,21.30
2018-06-21T19:36:34.137Z,21.10
2018-06-21T19:39:02.178Z,21.10
2018-06-21T19:41:30.248Z,21.00
2018-06-21T19:43:58.345Z,20.80
2018-06-21T19:46:26.495Z,20.80
2018-06-21T19:48:54.584Z,20.80
2018-06-21T19:51:22.645Z,20.70
2018-06-21T19:53:50.724Z,20.70
2018-06-21T19:56:18.807Z,20.60
2018-06-21T19:58:46.959Z,20.50
2018-06-21T20:01:15.071Z,20.50
2018-06-21T20:03:43.187Z,20.40
2018-06-21T20:06:11.270Z,20.40
2018-06-21T20:08:39.341Z,20.20
2018-06-21T20:11:12.749Z,20.20
2018-06-21T20:13:44.097Z,20.10
2018-06-21T20:16:12.191Z,19.90
2018-06-21T20:18:40.273Z,19.80
2018-06-21T20:21:12.033Z,19.70
2018-06-21T20:23:41.059Z,19.60
2018-06-21T20:26:09.462Z,19.60
2018-06-21T20:28:37.529Z,19.60
2018-06-21T20:31:05.821Z,19.50
2018-06-21T20:33:33.889Z,19.50
2018-06-21T20:36:01.983Z,19.50
2018-06-21T20:38:30.054Z,19.40
2018-06-21T20:40:58.133Z,19.30
2018-06-21T20:43:26.209Z,19.20
2018-06-21T20:45:54.299Z,19.10
2018-06-21T20:48:22.361Z,19.00
2018-06-21T20:50:51.263Z,18.90
2018-06-21T20:53:19.337Z,19.00
2018-06-21T20:55:47.416Z,18.90
2018-06-21T20:58:15.482Z,18.90
2018-06-21T21:00:43.565Z,18.80
2018-06-21T21:03:11.640Z,18.80
2018-06-21T21:05:39.743Z,18.70
2018-06-21T21:08:07.813Z,18.70
2018-06-21T21:10:35.893Z,18.50
2018-06-21T21:13:03.986Z,18.40
2018-06-21T21:17:59.939Z,18.20
2018-06-21T21:20:28.015Z,18.10
2018-06-21T21:22:56.098Z,18.10
2018-06-21T21:25:24.183Z,18.00
2018-06-21T21:27:52.261Z,17.90
2018-06-21T21:30:20.346Z,17.90
2018-06-21T21:32:48.439Z,17.80
2018-06-21T21:35:16.523Z,17.80
2018-06-21T21:37:44.605Z,17.70
2018-06-21T21:40:12.727Z,17.80
2018-06-21T21:42:40.829Z,17.80
2018-06-21T21:47:36.777Z,17.60
2018-06-21T21:50:04.859Z,17.50
2018-06-21T21:52:32.955Z,17.50
2018-06-21T21:55:01.054Z,17.40
2018-06-21T21:57:29.114Z,17.30
2018-06-21T21:59:57.198Z,17.20
2018-06-21T22:02:25.273Z,17.10
2018-06-21T22:04:53.364Z,17.10
2018-06-21T22:07:21.448Z,17.00
2018-06-21T22:09:49.552Z,17.00
2018-06-21T22:12:17.631Z,17.00
2018-06-21T22:14:45.719Z,17.00
2018-06-21T22:17:13.789Z,17.00
2018-06-21T22:19:41.870Z,16.90
2018-06-21T22:22:09.947Z,16.90
2018-06-21T22:24:38.027Z,16.90
2018-06-21T22:29:33.989Z,16.80
2018-06-21T22:32:02.081Z,16.60
2018-06-21T22:34:30.161Z,16.60
2018-06-21T22:36:58.250Z,16.50
2018-06-21T22:39:26.338Z,16.50
2018-06-21T22:41:54.417Z,16.60
2018-06-21T22:44:22.493Z,16.50
2018-06-21T22:46:50.575Z,16.40
2018-06-21T22:49:18.666Z,16.40
2018-06-21T22:51:46.742Z,16.40
2018-06-21T22:54:14.825Z,16.40
2018-06-21T22:56:42.897Z,16.30
2018-06-21T22:59:10.991Z,16.30
2018-06-21T23:01:39.062Z,16.30
2018-06-21T23:04:07.151Z,16.20
2018-06-21T23:09:03.103Z,16.10
2018-06-21T23:11:31.187Z,16.10
2018-06-21T23:13:59.288Z,16.00
2018-06-21T23:16:27.359Z,16.00
2018-06-21T23:19:06.846Z,16.00
2018-06-21T23:21:34.917Z,15.90
2018-06-21T23:24:03.007Z,15.90
2018-06-21T23:26:31.090Z,15.80
2018-06-21T23:28:59.177Z,15.70
2018-06-21T23:31:27.367Z,15.70
2018-06-21T23:33:55.625Z,15.60
2018-06-21T23:36:23.715Z,15.70
2018-06-21T23:38:51.781Z,15.70
2018-06-21T23:41:19.873Z,15.70
2018-06-21T23:43:47.943Z,15.60
2018-06-21T23:46:16.054Z,15.60
2018-06-21T23:48:44.150Z,15.60
2018-06-21T23:51:12.247Z,15.50
2018-06-21T23:53:40.323Z,15.40
2018-06-21T23:56:08.413Z,15.40
2018-06-21T23:58:36.503Z,15.40
